sensor_id;sensor_type;location;lat;lon;timestamp;pressure;altitude;pressure_sealevel;temperature;humidity
77954;BME280;67151;52.544;6.034;2023-06-19T00:00:02;100730;;;26.5;39
77954;BME280;67151;52.544;6.034;2023-06-19T00:00:17;100730;;;26.5;39.1
77954;BME280;67151;52.544;6.034;2023-06-19T00:00:32;100730;;;26.5;39.1
77954;BME280;67151;52.544;6.034;2023-06-19T00:00:47;100730;;;26.5;39.1
77954;BME280;67151;52.544;6.034;2023-06-19T00:01:02;100720;;;26.5;39.1
77954;BME280;67151;52.544;6.034;2023-06-19T00:01:17;100720;;;26.5;39.1
77954;BME280;67151;52.544;6.034;2023-06-19T00:01:32;100720;;;26.5;39.1
77954;BME280;67151;52.544;6.034;2023-06-19T00:01:47;100730;;;26.5;39
77954;BME280;67151;52.544;6.034;2023-06-19T00:02:02;100720;;;26.5;39.1
77954;BME280;67151;52.544;6.034;2023-06-19T00:02:17;100730;;;26.5;39.1
77954;BME280;67151;52.544;6.034;2023-06-19T00:02:32;100720;;;26.5;39
77954;BME280;67151;52.544;6.034;2023-06-19T00:02:47;100730;;;26.5;39
77954;BME280;67151;52.544;6.034;2023-06-19T00:03:02;100730;;;26.5;39
77954;BME280;67151;52.544;6.034;2023-06-19T00:03:17;100730;;;26.5;39
77954;BME280;67151;52.544;6.034;2023-06-19T00:03:32;100720;;;26.5;39
77954;BME280;67151;52.544;6.034;2023-06-19T00:03:47;100720;;;26.5;39
77954;BME280;67151;52.544;6.034;2023-06-19T00:04:02;100730;;;26.5;39.1
77954;BME280;67151;52.544;6.034;2023-06-19T00:04:17;100730;;;26.5;39.1
77954;BME280;67151;52.544;6.034;2023-06-19T00:04:32;100720;;;26.5;39.1
77954;BME280;67151;52.544;6.034;2023-06-19T00:04:47;100730;;;26.5;39.1
77954;BME280;67151;52.544;6.034;2023-06-19T00:05:02;100720;;;26.5;38.7
77954;BME280;67151;52.544;6.034;2023-06-19T00:05:17;100730;;;26.5;39.1
77954;BME280;67151;52.544;6.034;2023-06-19T00:05:32;100730;;;26.5;39.1
77954;BME280;67151;52.544;6.034;2023-06-19T00:05:47;100720;;;26.5;39
77954;BME280;67151;52.544;6.034;2023-06-19T00:06:02;100720;;;26.5;39.1
77954;BME280;67151;52.544;6.034;2023-06-19T00:06:17;100720;;;26.5;39.1
77954;BME280;67151;52.544;6.034;2023-06-19T00:06:32;100720;;;26.5;39.1
77954;BME280;67151;52.544;6.034;2023-06-19T00:06:47;100720;;;26.5;39.1
77954;BME280;67151;52.544;6.034;2023-06-19T00:07:03;100720;;;26.5;39
77954;BME280;67151;52.544;6.034;2023-06-19T00:07:17;100720;;;26.5;39.1
77954;BME280;67151;52.544;6.034;2023-06-19T00:07:32;100730;;;26.5;39.1
77954;BME280;67151;52.544;6.034;2023-06-19T00:07:47;100720;;;26.4;39.1
77954;BME280;67151;52.544;6.034;2023-06-19T00:08:02;100720;;;26.5;39.1
77954;BME280;67151;52.544;6.034;2023-06-19T00:08:17;100720;;;26.5;39.1
77954;BME280;67151;52.544;6.034;2023-06-19T00:08:32;100720;;;26.5;39.1
77954;BME280;67151;52.544;6.034;2023-06-19T00:08:47;100730;;;26.5;39
77954;BME280;67151;52.544;6.034;2023-06-19T00:09:02;100730;;;26.5;39
77954;BME280;67151;52.544;6.034;2023-06-19T00:09:17;100720;;;26.5;39
77954;BME280;67151;52.544;6.034;2023-06-19T00:09:32;100720;;;26.5;39
77954;BME280;67151;52.544;6.034;2023-06-19T00:09:47;100730;;;26.5;39
77954;BME280;67151;52.544;6.034;2023-06-19T00:10:02;100720;;;26.5;39.1
77954;BME280;67151;52.544;6.034;2023-06-19T00:10:17;100730;;;26.5;39.1
77954;BME280;67151;52.544;6.034;2023-06-19T00:10:32;100720;;;26.5;39.1
77954;BME280;67151;52.544;6.034;2023-06-19T00:10:47;100720;;;26.5;39.1
77954;BME280;67151;52.544;6.034;2023-06-19T00:11:02;100720;;;26.5;39.1
77954;BME280;67151;52.544;6.034;2023-06-19T00:11:17;100720;;;26.5;39.1
77954;BME280;67151;52.544;6.034;2023-06-19T00:11:32;100720;;;26.5;39.1
77954;BME280;67151;52.544;6.034;2023-06-19T00:11:47;100720;;;26.5;39
77954;BME280;67151;52.544;6.034;2023-06-19T00:12:02;100720;;;26.5;39
77954;BME280;67151;52.544;6.034;2023-06-19T00:12:17;100720;;;26.5;39.1
77954;BME280;67151;52.544;6.034;2023-06-19T00:12:32;100720;;;26.5;39
77954;BME280;67151;52.544;6.034;2023-06-19T00:12:47;100720;;;26.5;39.1
77954;BME280;67151;52.544;6.034;2023-06-19T00:13:02;100730;;;26.5;39
77954;BME280;67151;52.544;6.034;2023-06-19T00:13:17;100720;;;26.5;39.1
77954;BME280;67151;52.544;6.034;2023-06-19T00:13:32;100720;;;26.5;39.1
77954;BME280;67151;52.544;6.034;2023-06-19T00:13:47;100720;;;26.5;39
77954;BME280;67151;52.544;6.034;2023-06-19T00:14:02;100720;;;26.5;39
77954;BME280;67151;52.544;6.034;2023-06-19T00:14:17;100730;;;26.5;39.1
77954;BME280;67151;52.544;6.034;2023-06-19T00:14:32;100720;;;26.5;39.1
77954;BME280;67151;52.544;6.034;2023-06-19T00:14:47;100720;;;26.5;39.1
77954;BME280;67151;52.544;6.034;2023-06-19T00:15:02;100730;;;26.5;39.1
77954;BME280;67151;52.544;6.034;2023-06-19T00:15:17;100720;;;26.5;39.1
77954;BME280;67151;52.544;6.034;2023-06-19T00:15:32;100730;;;26.5;39.1
77954;BME280;67151;52.544;6.034;2023-06-19T00:15:47;100720;;;26.5;39
77954;BME280;67151;52.544;6.034;2023-06-19T00:16:02;100730;;;26.5;39.1
77954;BME280;67151;52.544;6.034;2023-06-19T00:16:17;100730;;;26.5;39.1
77954;BME280;67151;52.544;6.034;2023-06-19T00:16:32;100730;;;26.5;39.1
77954;BME280;67151;52.544;6.034;2023-06-19T00:16:47;100720;;;26.5;39.1
77954;BME280;67151;52.544;6.034;2023-06-19T00:17:02;100730;;;26.5;39
77954;BME280;67151;52.544;6.034;2023-06-19T00:17:17;100730;;;26.5;39.1
77954;BME280;67151;52.544;6.034;2023-06-19T00:17:32;100720;;;26.5;39.1
77954;BME280;67151;52.544;6.034;2023-06-19T00:17:47;100720;;;26.5;39.1
77954;BME280;67151;52.544;6.034;2023-06-19T00:18:02;100730;;;26.5;39.1
77954;BME280;67151;52.544;6.034;2023-06-19T00:18:17;100720;;;26.5;39.1
77954;BME280;67151;52.544;6.034;2023-06-19T00:18:32;100720;;;26.5;39
77954;BME280;67151;52.544;6.034;2023-06-19T00:18:47;100720;;;26.5;39.1
77954;BME280;67151;52.544;6.034;2023-06-19T00:19:02;100720;;;26.5;39.1
77954;BME280;67151;52.544;6.034;2023-06-19T00:19:17;100720;;;26.4;39.1
77954;BME280;67151;52.544;6.034;2023-06-19T00:19:32;100730;;;26.5;39.1
77954;BME280;67151;52.544;6.034;2023-06-19T00:19:47;100720;;;26.5;39
77954;BME280;67151;52.544;6.034;2023-06-19T00:20:02;100720;;;26.5;39
77954;BME280;67151;52.544;6.034;2023-06-19T00:20:17;100730;;;26.5;39
77954;BME280;67151;52.544;6.034;2023-06-19T00:20:32;100730;;;26.5;39
77954;BME280;67151;52.544;6.034;2023-06-19T00:20:47;100730;;;26.5;39
77954;BME280;67151;52.544;6.034;2023-06-19T00:21:02;100730;;;26.5;39
77954;BME280;67151;52.544;6.034;2023-06-19T00:21:17;100720;;;26.5;39
77954;BME280;67151;52.544;6.034;2023-06-19T00:21:32;100720;;;26.5;39.1
77954;BME280;67151;52.544;6.034;2023-06-19T00:21:47;100720;;;26.5;39
77954;BME280;67151;52.544;6.034;2023-06-19T00:22:02;100720;;;26.5;39.1
77954;BME280;67151;52.544;6.034;2023-06-19T00:22:17;100730;;;26.5;39
77954;BME280;67151;52.544;6.034;2023-06-19T00:22:32;100720;;;26.5;39.1
77954;BME280;67151;52.544;6.034;2023-06-19T00:22:47;100720;;;26.5;39.1
77954;BME280;67151;52.544;6.034;2023-06-19T00:23:02;100710;;;26.5;39
77954;BME280;67151;52.544;6.034;2023-06-19T00:23:17;100720;;;26.5;39
77954;BME280;67151;52.544;6.034;2023-06-19T00:23:32;100710;;;26.5;39
77954;BME280;67151;52.544;6.034;2023-06-19T00:23:47;100720;;;26.5;39
77954;BME280;67151;52.544;6.034;2023-06-19T00:24:02;100720;;;26.5;39
77954;BME280;67151;52.544;6.034;2023-06-19T00:24:17;100720;;;26.5;39
77954;BME280;67151;52.544;6.034;2023-06-19T00:24:32;100720;;;26.5;39
77954;BME280;67151;52.544;6.034;2023-06-19T00:24:47;100720;;;26.5;39.1
77954;BME280;67151;52.544;6.034;2023-06-19T00:25:02;100720;;;26.5;39
77954;BME280;67151;52.544;6.034;2023-06-19T00:25:17;100730;;;26.5;39.1
77954;BME280;67151;52.544;6.034;2023-06-19T00:25:32;100730;;;26.5;39
77954;BME280;67151;52.544;6.034;2023-06-19T00:25:47;100730;;;26.5;39
77954;BME280;67151;52.544;6.034;2023-06-19T00:26:02;100720;;;26.5;39.1
77954;BME280;67151;52.544;6.034;2023-06-19T00:26:17;100730;;;26.5;39.1
77954;BME280;67151;52.544;6.034;2023-06-19T00:26:32;100730;;;26.5;39
77954;BME280;67151;52.544;6.034;2023-06-19T00:26:47;100720;;;26.5;39.1
77954;BME280;67151;52.544;6.034;2023-06-19T00:27:02;100730;;;26.5;39
77954;BME280;67151;52.544;6.034;2023-06-19T00:27:17;100730;;;26.5;39
77954;BME280;67151;52.544;6.034;2023-06-19T00:27:32;100720;;;26.5;39
77954;BME280;67151;52.544;6.034;2023-06-19T00:27:47;100730;;;26.5;38.9
77954;BME280;67151;52.544;6.034;2023-06-19T00:28:02;100720;;;26.5;39
77954;BME280;67151;52.544;6.034;2023-06-19T00:28:17;100730;;;26.5;39
77954;BME280;67151;52.544;6.034;2023-06-19T00:28:32;100730;;;26.5;39
77954;BME280;67151;52.544;6.034;2023-06-19T00:28:47;100730;;;26.5;39
77954;BME280;67151;52.544;6.034;2023-06-19T00:29:02;100730;;;26.5;39
77954;BME280;67151;52.544;6.034;2023-06-19T00:29:17;100730;;;26.5;39
77954;BME280;67151;52.544;6.034;2023-06-19T00:29:32;100720;;;26.5;39
77954;BME280;67151;52.544;6.034;2023-06-19T00:29:47;100730;;;26.5;39.1
77954;BME280;67151;52.544;6.034;2023-06-19T00:30:02;100720;;;26.5;39
77954;BME280;67151;52.544;6.034;2023-06-19T00:30:17;100720;;;26.5;39
77954;BME280;67151;52.544;6.034;2023-06-19T00:30:32;100720;;;26.5;39
77954;BME280;67151;52.544;6.034;2023-06-19T00:30:47;100720;;;26.5;39
77954;BME280;67151;52.544;6.034;2023-06-19T00:31:02;100730;;;26.5;39
77954;BME280;67151;52.544;6.034;2023-06-19T00:31:17;100720;;;26.5;39
77954;BME280;67151;52.544;6.034;2023-06-19T00:31:32;100720;;;26.5;39
77954;BME280;67151;52.544;6.034;2023-06-19T00:31:47;100720;;;26.5;39
77954;BME280;67151;52.544;6.034;2023-06-19T00:32:02;100720;;;26.5;39
77954;BME280;67151;52.544;6.034;2023-06-19T00:32:17;100720;;;26.5;39
77954;BME280;67151;52.544;6.034;2023-06-19T00:32:32;100730;;;26.5;39
77954;BME280;67151;52.544;6.034;2023-06-19T00:32:47;100720;;;26.5;39
77954;BME280;67151;52.544;6.034;2023-06-19T00:33:02;100730;;;26.4;39
77954;BME280;67151;52.544;6.034;2023-06-19T00:33:17;100730;;;26.5;39
77954;BME280;67151;52.544;6.034;2023-06-19T00:33:32;100720;;;26.5;39
77954;BME280;67151;52.544;6.034;2023-06-19T00:33:47;100720;;;26.5;39
77954;BME280;67151;52.544;6.034;2023-06-19T00:34:02;100720;;;26.5;39
77954;BME280;67151;52.544;6.034;2023-06-19T00:34:17;100720;;;26.5;39
77954;BME280;67151;52.544;6.034;2023-06-19T00:34:32;100730;;;26.5;39
77954;BME280;67151;52.544;6.034;2023-06-19T00:34:47;100720;;;26.5;39
77954;BME280;67151;52.544;6.034;2023-06-19T00:35:02;100720;;;26.5;39
77954;BME280;67151;52.544;6.034;2023-06-19T00:35:17;100720;;;26.5;39
77954;BME280;67151;52.544;6.034;2023-06-19T00:35:32;100720;;;26.5;39
77954;BME280;67151;52.544;6.034;2023-06-19T00:35:47;100720;;;26.5;39
77954;BME280;67151;52.544;6.034;2023-06-19T00:36:02;100720;;;26.4;39
77954;BME280;67151;52.544;6.034;2023-06-19T00:36:17;100730;;;26.4;39.1
77954;BME280;67151;52.544;6.034;2023-06-19T00:36:32;100730;;;26.4;39
77954;BME280;67151;52.544;6.034;2023-06-19T00:36:47;100730;;;26.4;39
77954;BME280;67151;52.544;6.034;2023-06-19T00:37:02;100720;;;26.4;39
77954;BME280;67151;52.544;6.034;2023-06-19T00:37:17;100720;;;26.5;39
77954;BME280;67151;52.544;6.034;2023-06-19T00:37:32;100730;;;26.5;39
77954;BME280;67151;52.544;6.034;2023-06-19T00:37:47;100730;;;26.5;39
77954;BME280;67151;52.544;6.034;2023-06-19T00:38:02;100720;;;26.4;39
77954;BME280;67151;52.544;6.034;2023-06-19T00:38:17;100720;;;26.4;39
77954;BME280;67151;52.544;6.034;2023-06-19T00:38:32;100730;;;26.4;39.1
77954;BME280;67151;52.544;6.034;2023-06-19T00:38:47;100720;;;26.4;39
77954;BME280;67151;52.544;6.034;2023-06-19T00:39:02;100720;;;26.4;39
77954;BME280;67151;52.544;6.034;2023-06-19T00:39:17;100720;;;26.4;39
77954;BME280;67151;52.544;6.034;2023-06-19T00:39:32;100720;;;26.4;39
77954;BME280;67151;52.544;6.034;2023-06-19T00:39:47;100720;;;26.4;39
77954;BME280;67151;52.544;6.034;2023-06-19T00:40:02;100720;;;26.4;39
77954;BME280;67151;52.544;6.034;2023-06-19T00:40:19;100720;;;26.4;39
77954;BME280;67151;52.544;6.034;2023-06-19T00:40:32;100720;;;26.4;39
77954;BME280;67151;52.544;6.034;2023-06-19T00:40:47;100710;;;26.4;39
77954;BME280;67151;52.544;6.034;2023-06-19T00:41:02;100710;;;26.5;39
77954;BME280;67151;52.544;6.034;2023-06-19T00:41:17;100720;;;26.4;39
77954;BME280;67151;52.544;6.034;2023-06-19T00:41:32;100720;;;26.4;39
77954;BME280;67151;52.544;6.034;2023-06-19T00:41:47;100720;;;26.4;39
77954;BME280;67151;52.544;6.034;2023-06-19T00:42:02;100720;;;26.4;39
77954;BME280;67151;52.544;6.034;2023-06-19T00:42:17;100730;;;26.4;39
77954;BME280;67151;52.544;6.034;2023-06-19T00:42:32;100720;;;26.4;39
77954;BME280;67151;52.544;6.034;2023-06-19T00:42:47;100720;;;26.4;39
77954;BME280;67151;52.544;6.034;2023-06-19T00:43:02;100720;;;26.4;39
77954;BME280;67151;52.544;6.034;2023-06-19T00:43:17;100720;;;26.5;39
77954;BME280;67151;52.544;6.034;2023-06-19T00:43:32;100720;;;26.4;39
77954;BME280;67151;52.544;6.034;2023-06-19T00:43:47;100720;;;26.4;39
77954;BME280;67151;52.544;6.034;2023-06-19T00:44:02;100720;;;26.4;39
77954;BME280;67151;52.544;6.034;2023-06-19T00:44:17;100720;;;26.4;39
77954;BME280;67151;52.544;6.034;2023-06-19T00:44:32;100720;;;26.4;39
77954;BME280;67151;52.544;6.034;2023-06-19T00:44:47;100720;;;26.4;39
77954;BME280;67151;52.544;6.034;2023-06-19T00:45:02;100720;;;26.4;39
77954;BME280;67151;52.544;6.034;2023-06-19T00:45:17;100720;;;26.4;39
77954;BME280;67151;52.544;6.034;2023-06-19T00:45:32;100720;;;26.4;39
77954;BME280;67151;52.544;6.034;2023-06-19T00:45:47;100720;;;26.4;39
77954;BME280;67151;52.544;6.034;2023-06-19T00:46:02;100710;;;26.4;39
77954;BME280;67151;52.544;6.034;2023-06-19T00:46:17;100730;;;26.4;39
77954;BME280;67151;52.544;6.034;2023-06-19T00:46:32;100720;;;26.4;39
77954;BME280;67151;52.544;6.034;2023-06-19T00:46:47;100720;;;26.4;39
77954;BME280;67151;52.544;6.034;2023-06-19T00:47:02;100720;;;26.4;39
77954;BME280;67151;52.544;6.034;2023-06-19T00:47:17;100710;;;26.4;39
77954;BME280;67151;52.544;6.034;2023-06-19T00:47:33;100720;;;26.4;39
77954;BME280;67151;52.544;6.034;2023-06-19T00:47:47;100720;;;26.4;39
77954;BME280;67151;52.544;6.034;2023-06-19T00:48:02;100720;;;26.4;39
77954;BME280;67151;52.544;6.034;2023-06-19T00:48:17;100710;;;26.4;39
77954;BME280;67151;52.544;6.034;2023-06-19T00:48:32;100720;;;26.4;39
77954;BME280;67151;52.544;6.034;2023-06-19T00:48:47;100710;;;26.4;39
77954;BME280;67151;52.544;6.034;2023-06-19T00:49:02;100710;;;26.4;39
77954;BME280;67151;52.544;6.034;2023-06-19T00:49:17;100710;;;26.4;39
77954;BME280;67151;52.544;6.034;2023-06-19T00:49:32;100720;;;26.4;39
77954;BME280;67151;52.544;6.034;2023-06-19T00:49:47;100710;;;26.4;39
77954;BME280;67151;52.544;6.034;2023-06-19T00:50:02;100710;;;26.4;39
77954;BME280;67151;52.544;6.034;2023-06-19T00:50:17;100710;;;26.4;39
77954;BME280;67151;52.544;6.034;2023-06-19T00:50:32;100720;;;26.4;39
77954;BME280;67151;52.544;6.034;2023-06-19T00:50:47;100720;;;26.4;39
77954;BME280;67151;52.544;6.034;2023-06-19T00:51:02;100710;;;26.4;39
77954;BME280;67151;52.544;6.034;2023-06-19T00:51:17;100720;;;26.4;39
77954;BME280;67151;52.544;6.034;2023-06-19T00:51:32;100710;;;26.4;39
77954;BME280;67151;52.544;6.034;2023-06-19T00:51:47;100710;;;26.4;39
77954;BME280;67151;52.544;6.034;2023-06-19T00:52:02;100720;;;26.4;39
77954;BME280;67151;52.544;6.034;2023-06-19T00:52:17;100710;;;26.4;39
77954;BME280;67151;52.544;6.034;2023-06-19T00:52:32;100720;;;26.4;39
77954;BME280;67151;52.544;6.034;2023-06-19T00:52:47;100710;;;26.4;39
77954;BME280;67151;52.544;6.034;2023-06-19T00:53:02;100720;;;26.4;39
77954;BME280;67151;52.544;6.034;2023-06-19T00:53:17;100710;;;26.4;39
77954;BME280;67151;52.544;6.034;2023-06-19T00:53:32;100720;;;26.4;39
77954;BME280;67151;52.544;6.034;2023-06-19T00:53:47;100710;;;26.4;39
77954;BME280;67151;52.544;6.034;2023-06-19T00:54:02;100710;;;26.4;39
77954;BME280;67151;52.544;6.034;2023-06-19T00:54:17;100710;;;26.4;39
77954;BME280;67151;52.544;6.034;2023-06-19T00:54:32;100720;;;26.4;39
77954;BME280;67151;52.544;6.034;2023-06-19T00:54:47;100710;;;26.4;39
77954;BME280;67151;52.544;6.034;2023-06-19T00:55:02;100720;;;26.4;38.9
77954;BME280;67151;52.544;6.034;2023-06-19T00:55:17;100710;;;26.4;39
77954;BME280;67151;52.544;6.034;2023-06-19T00:55:32;100710;;;26.4;38.9
77954;BME280;67151;52.544;6.034;2023-06-19T00:55:47;100710;;;26.4;38.9
77954;BME280;67151;52.544;6.034;2023-06-19T00:56:02;100710;;;26.4;38.9
77954;BME280;67151;52.544;6.034;2023-06-19T00:56:17;100710;;;26.4;38.9
77954;BME280;67151;52.544;6.034;2023-06-19T00:56:32;100710;;;26.4;38.9
77954;BME280;67151;52.544;6.034;2023-06-19T00:56:47;100710;;;26.4;39
77954;BME280;67151;52.544;6.034;2023-06-19T00:57:02;100720;;;26.4;38.9
77954;BME280;67151;52.544;6.034;2023-06-19T00:57:17;100720;;;26.4;38.9
77954;BME280;67151;52.544;6.034;2023-06-19T00:57:32;100710;;;26.4;38.9
77954;BME280;67151;52.544;6.034;2023-06-19T00:57:47;100710;;;26.4;38.9
77954;BME280;67151;52.544;6.034;2023-06-19T00:58:02;100710;;;26.4;38.9
77954;BME280;67151;52.544;6.034;2023-06-19T00:58:17;100710;;;26.4;38.9
77954;BME280;67151;52.544;6.034;2023-06-19T00:58:32;100710;;;26.4;38.9
77954;BME280;67151;52.544;6.034;2023-06-19T00:58:47;100710;;;26.4;38.9
77954;BME280;67151;52.544;6.034;2023-06-19T00:59:02;100710;;;26.4;38.9
77954;BME280;67151;52.544;6.034;2023-06-19T00:59:17;100710;;;26.4;38.9
77954;BME280;67151;52.544;6.034;2023-06-19T00:59:32;100720;;;26.4;38.9
77954;BME280;67151;52.544;6.034;2023-06-19T00:59:47;100710;;;26.5;38.8
77954;BME280;67151;52.544;6.034;2023-06-19T01:00:02;100720;;;26.5;38.9
77954;BME280;67151;52.544;6.034;2023-06-19T01:00:17;100720;;;26.4;38.9
77954;BME280;67151;52.544;6.034;2023-06-19T01:00:32;100720;;;26.4;38.9
77954;BME280;67151;52.544;6.034;2023-06-19T01:00:47;100720;;;26.5;38.8
77954;BME280;67151;52.544;6.034;2023-06-19T01:01:02;100720;;;26.5;38.8
77954;BME280;67151;52.544;6.034;2023-06-19T01:01:17;100720;;;26.5;38.8
77954;BME280;67151;52.544;6.034;2023-06-19T01:01:32;100720;;;26.5;38.8
77954;BME280;67151;52.544;6.034;2023-06-19T01:01:47;100720;;;26.5;38.8
77954;BME280;67151;52.544;6.034;2023-06-19T01:02:02;100720;;;26.5;38.8
77954;BME280;67151;52.544;6.034;2023-06-19T01:02:17;100720;;;26.5;38.8
77954;BME280;67151;52.544;6.034;2023-06-19T01:02:32;100720;;;26.5;38.8
77954;BME280;67151;52.544;6.034;2023-06-19T01:02:47;100720;;;26.5;38.8
77954;BME280;67151;52.544;6.034;2023-06-19T01:03:02;100720;;;26.5;38.7
77954;BME280;67151;52.544;6.034;2023-06-19T01:03:17;100720;;;26.5;38.7
77954;BME280;67151;52.544;6.034;2023-06-19T01:03:32;100720;;;26.5;38.8
77954;BME280;67151;52.544;6.034;2023-06-19T01:03:47;100720;;;26.5;38.7
77954;BME280;67151;52.544;6.034;2023-06-19T01:04:02;100720;;;26.5;38.7
77954;BME280;67151;52.544;6.034;2023-06-19T01:04:17;100720;;;26.5;38.7
77954;BME280;67151;52.544;6.034;2023-06-19T01:04:32;100710;;;26.5;38.6
77954;BME280;67151;52.544;6.034;2023-06-19T01:04:47;100720;;;26.5;38.7
77954;BME280;67151;52.544;6.034;2023-06-19T01:05:02;100720;;;26.5;38.7
77954;BME280;67151;52.544;6.034;2023-06-19T01:05:17;100720;;;26.5;38.7
77954;BME280;67151;52.544;6.034;2023-06-19T01:05:32;100720;;;26.5;38.7
77954;BME280;67151;52.544;6.034;2023-06-19T01:05:47;100720;;;26.5;38.7
77954;BME280;67151;52.544;6.034;2023-06-19T01:06:02;100720;;;26.5;38.7
77954;BME280;67151;52.544;6.034;2023-06-19T01:06:19;100720;;;26.6;38.6
77954;BME280;67151;52.544;6.034;2023-06-19T01:06:35;100710;;;26.6;38.6
77954;BME280;67151;52.544;6.034;2023-06-19T01:06:50;100710;;;26.6;38.6
77954;BME280;67151;52.544;6.034;2023-06-19T01:07:02;100720;;;26.6;38.6
77954;BME280;67151;52.544;6.034;2023-06-19T01:07:18;100720;;;26.6;38.6
77954;BME280;67151;52.544;6.034;2023-06-19T01:07:33;100710;;;26.6;38.5
77954;BME280;67151;52.544;6.034;2023-06-19T01:07:47;100710;;;26.6;38.5
77954;BME280;67151;52.544;6.034;2023-06-19T01:08:03;100720;;;26.6;38.5
77954;BME280;67151;52.544;6.034;2023-06-19T01:08:18;100720;;;26.6;38.5
77954;BME280;67151;52.544;6.034;2023-06-19T01:08:37;100720;;;26.6;38.5
77954;BME280;67151;52.544;6.034;2023-06-19T01:08:49;100720;;;26.6;38.5
77954;BME280;67151;52.544;6.034;2023-06-19T01:09:02;100720;;;26.6;38.5
77954;BME280;67151;52.544;6.034;2023-06-19T01:09:17;100730;;;26.6;38.5
77954;BME280;67151;52.544;6.034;2023-06-19T01:09:33;100730;;;26.6;38.5
77954;BME280;67151;52.544;6.034;2023-06-19T01:09:48;100730;;;26.6;38.5
77954;BME280;67151;52.544;6.034;2023-06-19T01:10:02;100730;;;26.6;38.5
77954;BME280;67151;52.544;6.034;2023-06-19T01:10:18;100720;;;26.6;38.4
77954;BME280;67151;52.544;6.034;2023-06-19T01:10:33;100720;;;26.6;38.5
77954;BME280;67151;52.544;6.034;2023-06-19T01:10:48;100730;;;26.6;38.5
77954;BME280;67151;52.544;6.034;2023-06-19T01:11:02;100720;;;26.6;38.5
77954;BME280;67151;52.544;6.034;2023-06-19T01:11:17;100730;;;26.6;38.5
77954;BME280;67151;52.544;6.034;2023-06-19T01:11:32;100730;;;26.6;38.5
77954;BME280;67151;52.544;6.034;2023-06-19T01:11:48;100720;;;26.6;38.5
77954;BME280;67151;52.544;6.034;2023-06-19T01:12:03;100720;;;26.6;38.4
77954;BME280;67151;52.544;6.034;2023-06-19T01:12:18;100720;;;26.6;38.5
77954;BME280;67151;52.544;6.034;2023-06-19T01:12:33;100730;;;26.6;38.5
77954;BME280;67151;52.544;6.034;2023-06-19T01:12:49;100720;;;26.6;38.5
77954;BME280;67151;52.544;6.034;2023-06-19T01:13:02;100720;;;26.6;38.5
77954;BME280;67151;52.544;6.034;2023-06-19T01:13:18;100720;;;26.6;38.5
77954;BME280;67151;52.544;6.034;2023-06-19T01:13:33;100720;;;26.6;38.5
77954;BME280;67151;52.544;6.034;2023-06-19T01:13:47;100720;;;26.6;38.5
77954;BME280;67151;52.544;6.034;2023-06-19T01:14:03;100730;;;26.6;38.5
77954;BME280;67151;52.544;6.034;2023-06-19T01:14:17;100720;;;26.6;38.5
77954;BME280;67151;52.544;6.034;2023-06-19T01:14:34;100720;;;26.6;38.4
77954;BME280;67151;52.544;6.034;2023-06-19T01:14:48;100720;;;26.6;38.4
77954;BME280;67151;52.544;6.034;2023-06-19T01:15:02;100720;;;26.6;38.4
77954;BME280;67151;52.544;6.034;2023-06-19T01:15:17;100720;;;26.6;38.4
77954;BME280;67151;52.544;6.034;2023-06-19T01:15:32;100720;;;26.6;38.4
77954;BME280;67151;52.544;6.034;2023-06-19T01:15:47;100720;;;26.6;38.4
77954;BME280;67151;52.544;6.034;2023-06-19T01:16:02;100720;;;26.6;38.4
77954;BME280;67151;52.544;6.034;2023-06-19T01:16:17;100720;;;26.7;38.4
77954;BME280;67151;52.544;6.034;2023-06-19T01:16:32;100720;;;26.6;38.4
77954;BME280;67151;52.544;6.034;2023-06-19T01:16:47;100720;;;26.6;38.4
77954;BME280;67151;52.544;6.034;2023-06-19T01:17:02;100720;;;26.6;38.4
77954;BME280;67151;52.544;6.034;2023-06-19T01:17:17;100720;;;26.6;38.3
77954;BME280;67151;52.544;6.034;2023-06-19T01:17:32;100720;;;26.6;38.3
77954;BME280;67151;52.544;6.034;2023-06-19T01:17:47;100720;;;26.6;38.4
77954;BME280;67151;52.544;6.034;2023-06-19T01:18:02;100720;;;26.7;38.3
77954;BME280;67151;52.544;6.034;2023-06-19T01:18:17;100720;;;26.7;38.3
77954;BME280;67151;52.544;6.034;2023-06-19T01:18:32;100720;;;26.6;38.3
77954;BME280;67151;52.544;6.034;2023-06-19T01:18:47;100720;;;26.7;38.3
77954;BME280;67151;52.544;6.034;2023-06-19T01:19:02;100730;;;26.7;38.3
77954;BME280;67151;52.544;6.034;2023-06-19T01:19:18;100730;;;26.7;38.3
77954;BME280;67151;52.544;6.034;2023-06-19T01:19:32;100720;;;26.6;38.3
77954;BME280;67151;52.544;6.034;2023-06-19T01:19:47;100720;;;26.6;38.3
77954;BME280;67151;52.544;6.034;2023-06-19T01:20:02;100720;;;26.6;38.3
77954;BME280;67151;52.544;6.034;2023-06-19T01:20:17;100720;;;26.6;38.3
77954;BME280;67151;52.544;6.034;2023-06-19T01:20:32;100720;;;26.7;38.3
77954;BME280;67151;52.544;6.034;2023-06-19T01:20:47;100720;;;26.7;38.3
77954;BME280;67151;52.544;6.034;2023-06-19T01:21:09;100730;;;26.6;38.3
77954;BME280;67151;52.544;6.034;2023-06-19T01:21:17;100720;;;26.6;38.3
77954;BME280;67151;52.544;6.034;2023-06-19T01:21:32;100720;;;26.7;38.3
77954;BME280;67151;52.544;6.034;2023-06-19T01:21:47;100720;;;26.6;38.3
77954;BME280;67151;52.544;6.034;2023-06-19T01:22:02;100720;;;26.6;38.3
77954;BME280;67151;52.544;6.034;2023-06-19T01:22:25;100720;;;26.7;38.3
77954;BME280;67151;52.544;6.034;2023-06-19T01:22:32;100720;;;26.7;38.3
77954;BME280;67151;52.544;6.034;2023-06-19T01:22:47;100720;;;26.7;38.2
77954;BME280;67151;52.544;6.034;2023-06-19T01:23:06;100720;;;26.7;38.3
77954;BME280;67151;52.544;6.034;2023-06-19T01:23:17;100730;;;26.7;38.3
77954;BME280;67151;52.544;6.034;2023-06-19T01:23:32;100730;;;26.7;38.3
77954;BME280;67151;52.544;6.034;2023-06-19T01:23:47;100720;;;26.7;38.3
77954;BME280;67151;52.544;6.034;2023-06-19T01:24:02;100720;;;26.7;38.3
77954;BME280;67151;52.544;6.034;2023-06-19T01:24:17;100720;;;26.7;38.2
77954;BME280;67151;52.544;6.034;2023-06-19T01:24:32;100720;;;26.7;38.3
77954;BME280;67151;52.544;6.034;2023-06-19T01:24:47;100720;;;26.7;38.3